sensor_id;sensor_type;location;lat;lon;timestamp;temperature;humidity
17128;DHT22;8679;50.842;4.322;2023-11-21T00:01:02;9.40;99.90
17128;DHT22;8679;50.842;4.322;2023-11-21T00:03:30;9.40;99.90
17128;DHT22;8679;50.842;4.322;2023-11-21T00:05:55;9.40;99.90
17128;DHT22;8679;50.842;4.322;2023-11-21T00:08:21;9.40;99.90
17128;DHT22;8679;50.842;4.322;2023-11-21T00:10:47;9.30;99.90
17128;DHT22;8679;50.842;4.322;2023-11-21T00:13:13;9.40;99.90
17128;DHT22;8679;50.842;4.322;2023-11-21T00:15:39;9.30;99.90
17128;DHT22;8679;50.842;4.322;2023-11-21T00:18:06;9.30;99.90
17128;DHT22;8679;50.842;4.322;2023-11-21T00:20:31;9.30;99.90
17128;DHT22;8679;50.842;4.322;2023-11-21T00:22:57;9.30;99.90
17128;DHT22;8679;50.842;4.322;2023-11-21T00:25:24;9.50;99.90
17128;DHT22;8679;50.842;4.322;2023-11-21T00:27:50;9.30;99.90
17128;DHT22;8679;50.842;4.322;2023-11-21T00:30:16;9.30;99.90
17128;DHT22;8679;50.842;4.322;2023-11-21T00:32:41;9.30;99.90
17128;DHT22;8679;50.842;4.322;2023-11-21T00:35:07;9.30;99.90
17128;DHT22;8679;50.842;4.322;2023-11-21T00:37:33;9.30;99.90
17128;DHT22;8679;50.842;4.322;2023-11-21T00:39:59;9.20;99.90
17128;DHT22;8679;50.842;4.322;2023-11-21T00:42:24;9.40;99.90
17128;DHT22;8679;50.842;4.322;2023-11-21T00:44:50;9.20;99.90
17128;DHT22;8679;50.842;4.322;2023-11-21T00:47:16;9.20;99.90
17128;DHT22;8679;50.842;4.322;2023-11-21T00:49:42;9.30;99.90
17128;DHT22;8679;50.842;4.322;2023-11-21T00:52:08;9.30;99.90
17128;DHT22;8679;50.842;4.322;2023-11-21T00:54:34;9.20;99.90
17128;DHT22;8679;50.842;4.322;2023-11-21T00:57:00;9.30;99.90
17128;DHT22;8679;50.842;4.322;2023-11-21T00:59:25;9.20;99.90
17128;DHT22;8679;50.842;4.322;2023-11-21T01:01:51;9.30;99.90
17128;DHT22;8679;50.842;4.322;2023-11-21T01:04:17;9.30;99.90
17128;DHT22;8679;50.842;4.322;2023-11-21T01:06:42;9.20;99.90
17128;DHT22;8679;50.842;4.322;2023-11-21T01:09:08;9.30;99.90
17128;DHT22;8679;50.842;4.322;2023-11-21T01:11:35;9.40;99.90
17128;DHT22;8679;50.842;4.322;2023-11-21T01:14:03;9.20;99.90
17128;DHT22;8679;50.842;4.322;2023-11-21T01:16:29;9.20;99.90
17128;DHT22;8679;50.842;4.322;2023-11-21T01:18:54;9.40;99.90
17128;DHT22;8679;50.842;4.322;2023-11-21T01:21:20;9.30;99.90
17128;DHT22;8679;50.842;4.322;2023-11-21T01:23:46;9.30;99.90
17128;DHT22;8679;50.842;4.322;2023-11-21T01:26:13;9.30;99.90
17128;DHT22;8679;50.842;4.322;2023-11-21T01:28:38;9.20;99.90
17128;DHT22;8679;50.842;4.322;2023-11-21T01:31:04;9.20;99.90
17128;DHT22;8679;50.842;4.322;2023-11-21T01:33:30;9.20;99.90
17128;DHT22;8679;50.842;4.322;2023-11-21T01:35:55;9.20;99.90
17128;DHT22;8679;50.842;4.322;2023-11-21T01:38:21;9.30;99.90
17128;DHT22;8679;50.842;4.322;2023-11-21T01:40:48;9.30;99.90
17128;DHT22;8679;50.842;4.322;2023-11-21T01:43:13;9.30;99.90
17128;DHT22;8679;50.842;4.322;2023-11-21T01:45:39;9.30;99.90
17128;DHT22;8679;50.842;4.322;2023-11-21T01:48:05;9.20;99.90
17128;DHT22;8679;50.842;4.322;2023-11-21T01:50:34;9.20;99.90
17128;DHT22;8679;50.842;4.322;2023-11-21T01:53:00;9.30;99.90
17128;DHT22;8679;50.842;4.322;2023-11-21T01:55:27;9.30;99.90
17128;DHT22;8679;50.842;4.322;2023-11-21T01:57:54;9.20;99.90
17128;DHT22;8679;50.842;4.322;2023-11-21T02:00:20;9.30;99.90
17128;DHT22;8679;50.842;4.322;2023-11-21T02:02:47;9.20;99.90
17128;DHT22;8679;50.842;4.322;2023-11-21T02:05:14;9.30;99.90
17128;DHT22;8679;50.842;4.322;2023-11-21T02:07:41;9.30;99.90
17128;DHT22;8679;50.842;4.322;2023-11-21T02:10:08;9.30;99.90
17128;DHT22;8679;50.842;4.322;2023-11-21T02:12:35;9.30;99.90
17128;DHT22;8679;50.842;4.322;2023-11-21T02:15:04;9.30;99.90
17128;DHT22;8679;50.842;4.322;2023-11-21T02:17:35;9.30;99.90
17128;DHT22;8679;50.842;4.322;2023-11-21T02:20:01;9.30;99.90
17128;DHT22;8679;50.842;4.322;2023-11-21T02:22:30;9.30;99.90
17128;DHT22;8679;50.842;4.322;2023-11-21T02:24:56;9.30;99.90
17128;DHT22;8679;50.842;4.322;2023-11-21T02:27:24;9.30;99.90
17128;DHT22;8679;50.842;4.322;2023-11-21T02:29:50;9.30;99.90
17128;DHT22;8679;50.842;4.322;2023-11-21T02:32:16;9.30;99.90
17128;DHT22;8679;50.842;4.322;2023-11-21T02:34:45;9.20;99.90
17128;DHT22;8679;50.842;4.322;2023-11-21T02:37:10;9.30;99.90
17128;DHT22;8679;50.842;4.322;2023-11-21T02:39:37;9.30;99.90
17128;DHT22;8679;50.842;4.322;2023-11-21T02:42:03;9.30;99.90
17128;DHT22;8679;50.842;4.322;2023-11-21T02:44:29;9.30;99.90
17128;DHT22;8679;50.842;4.322;2023-11-21T02:46:55;9.40;99.90
17128;DHT22;8679;50.842;4.322;2023-11-21T02:49:23;9.30;99.90
17128;DHT22;8679;50.842;4.322;2023-11-21T02:51:48;9.30;99.90
17128;DHT22;8679;50.842;4.322;2023-11-21T02:54:14;9.40;99.90
17128;DHT22;8679;50.842;4.322;2023-11-21T02:56:40;9.20;99.90
17128;DHT22;8679;50.842;4.322;2023-11-21T02:59:05;9.30;99.90
17128;DHT22;8679;50.842;4.322;2023-11-21T03:01:31;9.40;99.90
17128;DHT22;8679;50.842;4.322;2023-11-21T03:03:57;9.30;99.90
17128;DHT22;8679;50.842;4.322;2023-11-21T03:06:23;9.20;99.90
17128;DHT22;8679;50.842;4.322;2023-11-21T03:08:49;9.20;99.90
17128;DHT22;8679;50.842;4.322;2023-11-21T03:11:14;9.20;99.90
17128;DHT22;8679;50.842;4.322;2023-11-21T03:13:41;9.20;99.90
17128;DHT22;8679;50.842;4.322;2023-11-21T03:16:10;9.20;99.90
17128;DHT22;8679;50.842;4.322;2023-11-21T03:18:37;9.20;99.90
17128;DHT22;8679;50.842;4.322;2023-11-21T03:21:04;9.30;99.90
17128;DHT22;8679;50.842;4.322;2023-11-21T03:23:31;9.20;99.90
17128;DHT22;8679;50.842;4.322;2023-11-21T03:25:57;9.40;99.90
17128;DHT22;8679;50.842;4.322;2023-11-21T03:28:25;9.20;99.90
17128;DHT22;8679;50.842;4.322;2023-11-21T03:30:52;9.30;99.90
17128;DHT22;8679;50.842;4.322;2023-11-21T03:33:18;9.20;99.90
17128;DHT22;8679;50.842;4.322;2023-11-21T03:35:44;9.20;99.90
17128;DHT22;8679;50.842;4.322;2023-11-21T03:38:10;9.20;99.90
17128;DHT22;8679;50.842;4.322;2023-11-21T03:40:36;9.20;99.90
17128;DHT22;8679;50.842;4.322;2023-11-21T03:43:02;9.10;99.90
17128;DHT22;8679;50.842;4.322;2023-11-21T03:45:28;9.20;99.90
17128;DHT22;8679;50.842;4.322;2023-11-21T03:47:53;9.10;99.90
17128;DHT22;8679;50.842;4.322;2023-11-21T03:50:19;9.20;99.90
17128;DHT22;8679;50.842;4.322;2023-11-21T03:52:45;9.20;99.90
17128;DHT22;8679;50.842;4.322;2023-11-21T03:55:10;9.20;99.90
17128;DHT22;8679;50.842;4.322;2023-11-21T03:57:36;9.20;99.90
17128;DHT22;8679;50.842;4.322;2023-11-21T04:00:03;9.20;99.90
17128;DHT22;8679;50.842;4.322;2023-11-21T04:02:29;9.20;99.90
17128;DHT22;8679;50.842;4.322;2023-11-21T04:04:57;9.20;99.90
17128;DHT22;8679;50.842;4.322;2023-11-21T04:07:22;9.10;99.90
17128;DHT22;8679;50.842;4.322;2023-11-21T04:09:48;9.20;99.90
17128;DHT22;8679;50.842;4.322;2023-11-21T04:12:14;9.20;99.90
17128;DHT22;8679;50.842;4.322;2023-11-21T04:14:39;9.30;99.90
17128;DHT22;8679;50.842;4.322;2023-11-21T04:17:05;9.20;99.90
17128;DHT22;8679;50.842;4.322;2023-11-21T04:19:31;9.20;99.90
17128;DHT22;8679;50.842;4.322;2023-11-21T04:21:56;9.30;99.90
17128;DHT22;8679;50.842;4.322;2023-11-21T04:24:22;9.20;99.90
17128;DHT22;8679;50.842;4.322;2023-11-21T04:26:48;9.30;99.90
17128;DHT22;8679;50.842;4.322;2023-11-21T04:29:14;9.30;99.90
17128;DHT22;8679;50.842;4.322;2023-11-21T04:31:40;9.30;99.90
17128;DHT22;8679;50.842;4.322;2023-11-21T04:34:07;9.20;99.90
17128;DHT22;8679;50.842;4.322;2023-11-21T04:36:33;9.20;99.90
17128;DHT22;8679;50.842;4.322;2023-11-21T04:39:00;9.30;99.90
17128;DHT22;8679;50.842;4.322;2023-11-21T04:41:26;9.30;99.90
17128;DHT22;8679;50.842;4.322;2023-11-21T04:43:55;9.20;99.90
17128;DHT22;8679;50.842;4.322;2023-11-21T04:46:24;9.30;99.90
17128;DHT22;8679;50.842;4.322;2023-11-21T04:48:49;9.30;99.90
17128;DHT22;8679;50.842;4.322;2023-11-21T04:51:21;9.30;99.90
17128;DHT22;8679;50.842;4.322;2023-11-21T04:53:47;9.30;99.90
17128;DHT22;8679;50.842;4.322;2023-11-21T04:56:13;9.40;99.90
17128;DHT22;8679;50.842;4.322;2023-11-21T04:58:38;9.30;99.90
17128;DHT22;8679;50.842;4.322;2023-11-21T05:01:06;9.30;99.90
17128;DHT22;8679;50.842;4.322;2023-11-21T05:03:32;9.30;99.90
17128;DHT22;8679;50.842;4.322;2023-11-21T05:05:59;9.30;99.90
17128;DHT22;8679;50.842;4.322;2023-11-21T05:08:25;9.30;99.90
17128;DHT22;8679;50.842;4.322;2023-11-21T05:10:52;9.40;99.90
17128;DHT22;8679;50.842;4.322;2023-11-21T05:13:17;9.30;99.90
17128;DHT22;8679;50.842;4.322;2023-11-21T05:15:44;9.40;99.90
17128;DHT22;8679;50.842;4.322;2023-11-21T05:18:10;9.30;99.90
17128;DHT22;8679;50.842;4.322;2023-11-21T05:20:36;9.40;99.90
17128;DHT22;8679;50.842;4.322;2023-11-21T05:23:03;9.40;99.90
17128;DHT22;8679;50.842;4.322;2023-11-21T05:25:29;9.40;99.90
17128;DHT22;8679;50.842;4.322;2023-11-21T05:27:54;9.40;99.90
17128;DHT22;8679;50.842;4.322;2023-11-21T05:30:21;9.40;99.90
17128;DHT22;8679;50.842;4.322;2023-11-21T05:32:47;9.40;99.90
17128;DHT22;8679;50.842;4.322;2023-11-21T05:35:12;9.40;99.90
17128;DHT22;8679;50.842;4.322;2023-11-21T05:37:41;9.40;99.90
17128;DHT22;8679;50.842;4.322;2023-11-21T05:40:08;9.40;99.90
17128;DHT22;8679;50.842;4.322;2023-11-21T05:42:34;9.40;99.90
17128;DHT22;8679;50.842;4.322;2023-11-21T05:45:00;9.40;99.90
17128;DHT22;8679;50.842;4.322;2023-11-21T05:47:43;9.40;99.90
17128;DHT22;8679;50.842;4.322;2023-11-21T05:50:09;9.40;99.90
17128;DHT22;8679;50.842;4.322;2023-11-21T05:52:38;9.40;99.90
17128;DHT22;8679;50.842;4.322;2023-11-21T05:55:05;9.50;99.90
17128;DHT22;8679;50.842;4.322;2023-11-21T05:57:34;9.50;99.90
17128;DHT22;8679;50.842;4.322;2023-11-21T06:00:07;9.50;99.90
17128;DHT22;8679;50.842;4.322;2023-11-21T06:02:40;9.40;99.90
17128;DHT22;8679;50.842;4.322;2023-11-21T06:05:07;9.50;99.90
17128;DHT22;8679;50.842;4.322;2023-11-21T06:07:33;9.50;99.90
17128;DHT22;8679;50.842;4.322;2023-11-21T06:09:59;9.50;99.90
17128;DHT22;8679;50.842;4.322;2023-11-21T06:12:25;9.40;99.90
17128;DHT22;8679;50.842;4.322;2023-11-21T06:14:50;9.50;99.90
17128;DHT22;8679;50.842;4.322;2023-11-21T06:17:16;9.50;99.90
17128;DHT22;8679;50.842;4.322;2023-11-21T06:19:43;9.50;99.90
17128;DHT22;8679;50.842;4.322;2023-11-21T06:22:11;9.50;99.90
17128;DHT22;8679;50.842;4.322;2023-11-21T06:24:36;9.50;99.90
17128;DHT22;8679;50.842;4.322;2023-11-21T06:27:06;9.70;99.90
17128;DHT22;8679;50.842;4.322;2023-11-21T06:29:31;9.60;99.90
17128;DHT22;8679;50.842;4.322;2023-11-21T06:31:57;9.50;99.90
17128;DHT22;8679;50.842;4.322;2023-11-21T06:34:24;9.50;99.90
17128;DHT22;8679;50.842;4.322;2023-11-21T06:36:49;9.50;99.90
17128;DHT22;8679;50.842;4.322;2023-11-21T06:39:15;9.50;99.90
17128;DHT22;8679;50.842;4.322;2023-11-21T06:41:43;9.60;99.90
17128;DHT22;8679;50.842;4.322;2023-11-21T06:44:08;9.60;99.90
17128;DHT22;8679;50.842;4.322;2023-11-21T06:46:36;9.60;99.90
17128;DHT22;8679;50.842;4.322;2023-11-21T06:49:03;9.50;99.90
17128;DHT22;8679;50.842;4.322;2023-11-21T06:51:29;9.60;99.90
17128;DHT22;8679;50.842;4.322;2023-11-21T06:53:54;9.60;99.90
17128;DHT22;8679;50.842;4.322;2023-11-21T06:56:20;9.60;99.90
17128;DHT22;8679;50.842;4.322;2023-11-21T06:58:46;9.60;99.90
17128;DHT22;8679;50.842;4.322;2023-11-21T07:01:13;9.70;99.90
17128;DHT22;8679;50.842;4.322;2023-11-21T07:03:39;9.60;99.90
17128;DHT22;8679;50.842;4.322;2023-11-21T07:06:05;9.60;99.90
17128;DHT22;8679;50.842;4.322;2023-11-21T07:08:31;9.60;99.90
17128;DHT22;8679;50.842;4.322;2023-11-21T07:10:57;9.60;99.90
17128;DHT22;8679;50.842;4.322;2023-11-21T07:13:23;9.50;99.90
17128;DHT22;8679;50.842;4.322;2023-11-21T07:15:49;9.60;99.90
17128;DHT22;8679;50.842;4.322;2023-11-21T07:18:15;9.70;99.90
17128;DHT22;8679;50.842;4.322;2023-11-21T07:20:40;9.60;99.90
17128;DHT22;8679;50.842;4.322;2023-11-21T07:23:06;9.60;99.90
17128;DHT22;8679;50.842;4.322;2023-11-21T07:25:32;9.60;99.90
17128;DHT22;8679;50.842;4.322;2023-11-21T07:28:01;9.60;99.90
17128;DHT22;8679;50.842;4.322;2023-11-21T07:30:26;9.70;99.90
17128;DHT22;8679;50.842;4.322;2023-11-21T07:32:52;9.70;99.90
17128;DHT22;8679;50.842;4.322;2023-11-21T07:35:18;9.70;99.90
17128;DHT22;8679;50.842;4.322;2023-11-21T07:37:44;9.70;99.90
17128;DHT22;8679;50.842;4.322;2023-11-21T07:40:10;9.70;99.90
17128;DHT22;8679;50.842;4.322;2023-11-21T07:42:37;9.80;99.90
17128;DHT22;8679;50.842;4.322;2023-11-21T07:45:04;9.70;99.90
17128;DHT22;8679;50.842;4.322;2023-11-21T07:47:30;9.80;99.90
17128;DHT22;8679;50.842;4.322;2023-11-21T07:50:00;9.70;99.90
17128;DHT22;8679;50.842;4.322;2023-11-21T07:52:25;9.80;99.90
17128;DHT22;8679;50.842;4.322;2023-11-21T07:54:51;9.80;99.90
17128;DHT22;8679;50.842;4.322;2023-11-21T07:57:17;9.90;99.90
17128;DHT22;8679;50.842;4.322;2023-11-21T07:59:42;9.80;99.90
17128;DHT22;8679;50.842;4.322;2023-11-21T08:02:08;9.80;99.90
17128;DHT22;8679;50.842;4.322;2023-11-21T08:04:33;9.80;99.90
17128;DHT22;8679;50.842;4.322;2023-11-21T08:07:01;9.90;99.90
17128;DHT22;8679;50.842;4.322;2023-11-21T08:09:27;9.90;99.90
17128;DHT22;8679;50.842;4.322;2023-11-21T08:11:53;9.80;99.90
17128;DHT22;8679;50.842;4.322;2023-11-21T08:14:19;9.90;99.90
17128;DHT22;8679;50.842;4.322;2023-11-21T08:16:46;9.90;99.90
17128;DHT22;8679;50.842;4.322;2023-11-21T08:19:11;9.90;99.90
17128;DHT22;8679;50.842;4.322;2023-11-21T08:21:37;9.90;99.90
17128;DHT22;8679;50.842;4.322;2023-11-21T08:24:06;9.90;99.90
17128;DHT22;8679;50.842;4.322;2023-11-21T08:26:32;9.90;99.90
17128;DHT22;8679;50.842;4.322;2023-11-21T08:28:57;10.00;99.90
17128;DHT22;8679;50.842;4.322;2023-11-21T08:31:26;10.00;99.90
17128;DHT22;8679;50.842;4.322;2023-11-21T08:33:52;10.00;99.90
17128;DHT22;8679;50.842;4.322;2023-11-21T08:36:23;10.00;99.90
17128;DHT22;8679;50.842;4.322;2023-11-21T08:38:51;10.10;99.90
17128;DHT22;8679;50.842;4.322;2023-11-21T08:41:20;10.10;99.90
17128;DHT22;8679;50.842;4.322;2023-11-21T08:43:51;10.10;99.90
17128;DHT22;8679;50.842;4.322;2023-11-21T08:46:18;10.10;99.90
17128;DHT22;8679;50.842;4.322;2023-11-21T08:48:44;10.10;99.90
17128;DHT22;8679;50.842;4.322;2023-11-21T08:51:12;10.10;99.90
17128;DHT22;8679;50.842;4.322;2023-11-21T08:53:39;10.10;99.90
17128;DHT22;8679;50.842;4.322;2023-11-21T08:56:06;10.20;99.90
17128;DHT22;8679;50.842;4.322;2023-11-21T08:58:32;10.20;99.90
17128;DHT22;8679;50.842;4.322;2023-11-21T09:00:58;10.20;99.90
17128;DHT22;8679;50.842;4.322;2023-11-21T09:03:24;10.30;99.90
17128;DHT22;8679;50.842;4.322;2023-11-21T09:05:50;10.40;99.90
17128;DHT22;8679;50.842;4.322;2023-11-21T09:08:16;10.40;99.90
17128;DHT22;8679;50.842;4.322;2023-11-21T09:10:41;10.30;99.90
17128;DHT22;8679;50.842;4.322;2023-11-21T09:13:08;10.40;99.90
17128;DHT22;8679;50.842;4.322;2023-11-21T09:15:34;10.40;99.90
17128;DHT22;8679;50.842;4.322;2023-11-21T09:18:00;10.40;99.90
17128;DHT22;8679;50.842;4.322;2023-11-21T09:20:27;10.30;99.90
17128;DHT22;8679;50.842;4.322;2023-11-21T09:22:54;10.40;99.90
17128;DHT22;8679;50.842;4.322;2023-11-21T09:25:20;10.40;99.90
17128;DHT22;8679;50.842;4.322;2023-11-21T09:27:46;10.40;99.90
17128;DHT22;8679;50.842;4.322;2023-11-21T09:30:12;10.40;99.90
17128;DHT22;8679;50.842;4.322;2023-11-21T09:32:39;10.40;99.90
17128;DHT22;8679;50.842;4.322;2023-11-21T09:35:06;10.40;99.90
17128;DHT22;8679;50.842;4.322;2023-11-21T09:37:33;10.50;99.90
17128;DHT22;8679;50.842;4.322;2023-11-21T09:39:59;10.50;99.90
17128;DHT22;8679;50.842;4.322;2023-11-21T09:42:54;10.50;99.90
17128;DHT22;8679;50.842;4.322;2023-11-21T09:47:53;10.60;99.90
17128;DHT22;8679;50.842;4.322;2023-11-21T09:50:21;10.50;99.90
17128;DHT22;8679;50.842;4.322;2023-11-21T09:55:34;10.70;99.90
17128;DHT22;8679;50.842;4.322;2023-11-21T09:58:04;10.70;99.90
17128;DHT22;8679;50.842;4.322;2023-11-21T10:00:33;10.80;99.90
17128;DHT22;8679;50.842;4.322;2023-11-21T10:02:59;10.80;99.90
17128;DHT22;8679;50.842;4.322;2023-11-21T10:05:25;10.80;99.90
17128;DHT22;8679;50.842;4.322;2023-11-21T10:07:52;10.80;99.90
17128;DHT22;8679;50.842;4.322;2023-11-21T10:10:19;10.90;99.90
17128;DHT22;8679;50.842;4.322;2023-11-21T10:12:50;10.90;99.90
17128;DHT22;8679;50.842;4.322;2023-11-21T10:15:21;10.90;99.90
17128;DHT22;8679;50.842;4.322;2023-11-21T10:17:49;11.00;99.90
17128;DHT22;8679;50.842;4.322;2023-11-21T10:20:15;10.90;99.90
17128;DHT22;8679;50.842;4.322;2023-11-21T10:22:42;10.90;99.90
17128;DHT22;8679;50.842;4.322;2023-11-21T10:25:11;10.90;99.90
17128;DHT22;8679;50.842;4.322;2023-11-21T10:27:40;11.00;99.90
17128;DHT22;8679;50.842;4.322;2023-11-21T10:30:09;11.00;99.90
17128;DHT22;8679;50.842;4.322;2023-11-21T10:32:42;11.10;99.90
17128;DHT22;8679;50.842;4.322;2023-11-21T10:35:09;11.20;99.90
17128;DHT22;8679;50.842;4.322;2023-11-21T10:37:41;11.30;99.90
17128;DHT22;8679;50.842;4.322;2023-11-21T10:40:10;11.40;99.90
17128;DHT22;8679;50.842;4.322;2023-11-21T10:42:39;11.40;99.90
17128;DHT22;8679;50.842;4.322;2023-11-21T10:45:06;11.50;99.90
17128;DHT22;8679;50.842;4.322;2023-11-21T10:47:39;11.50;99.90
17128;DHT22;8679;50.842;4.322;2023-11-21T10:50:05;11.60;99.90
17128;DHT22;8679;50.842;4.322;2023-11-21T10:52:31;11.60;99.90
17128;DHT22;8679;50.842;4.322;2023-11-21T10:54:57;11.70;99.90
17128;DHT22;8679;50.842;4.322;2023-11-21T10:57:25;11.80;99.90
17128;DHT22;8679;50.842;4.322;2023-11-21T10:59:54;11.80;99.90
17128;DHT22;8679;50.842;4.322;2023-11-21T11:02:26;11.80;99.90
17128;DHT22;8679;50.842;4.322;2023-11-21T11:04:54;11.90;99.90
17128;DHT22;8679;50.842;4.322;2023-11-21T11:07:27;12.00;99.90
17128;DHT22;8679;50.842;4.322;2023-11-21T11:09:56;12.00;99.90
17128;DHT22;8679;50.842;4.322;2023-11-21T11:12:23;12.20;99.90
17128;DHT22;8679;50.842;4.322;2023-11-21T11:14:49;12.20;99.90
17128;DHT22;8679;50.842;4.322;2023-11-21T11:17:17;12.20;99.90
17128;DHT22;8679;50.842;4.322;2023-11-21T11:19:46;12.20;99.90
17128;DHT22;8679;50.842;4.322;2023-11-21T11:22:29;12.20;99.90
17128;DHT22;8679;50.842;4.322;2023-11-21T11:25:16;12.20;99.90
17128;DHT22;8679;50.842;4.322;2023-11-21T11:28:17;12.10;99.90
17128;DHT22;8679;50.842;4.322;2023-11-21T11:33:48;12.20;99.90
17128;DHT22;8679;50.842;4.322;2023-11-21T11:36:34;12.20;99.90
17128;DHT22;8679;50.842;4.322;2023-11-21T11:39:01;12.20;99.90
17128;DHT22;8679;50.842;4.322;2023-11-21T11:41:31;12.20;99.90
17128;DHT22;8679;50.842;4.322;2023-11-21T11:44:02;12.10;99.90
17128;DHT22;8679;50.842;4.322;2023-11-21T11:46:45;12.10;99.90
17128;DHT22;8679;50.842;4.322;2023-11-21T11:49:24;12.10;99.90
17128;DHT22;8679;50.842;4.322;2023-11-21T11:54:55;12.00;99.90
17128;DHT22;8679;50.842;4.322;2023-11-21T11:57:24;12.00;99.90
17128;DHT22;8679;50.842;4.322;2023-11-21T12:02:38;11.90;99.90
17128;DHT22;8679;50.842;4.322;2023-11-21T12:05:11;11.90;99.90
17128;DHT22;8679;50.842;4.322;2023-11-21T12:07:50;11.90;99.90
17128;DHT22;8679;50.842;4.322;2023-11-21T12:10:22;11.80;99.90
17128;DHT22;8679;50.842;4.322;2023-11-21T12:12:52;11.80;99.90
17128;DHT22;8679;50.842;4.322;2023-11-21T12:15:18;11.70;99.90
17128;DHT22;8679;50.842;4.322;2023-11-21T12:17:45;11.70;99.90
17128;DHT22;8679;50.842;4.322;2023-11-21T12:20:14;11.70;99.90
17128;DHT22;8679;50.842;4.322;2023-11-21T12:25:26;11.60;99.90
17128;DHT22;8679;50.842;4.322;2023-11-21T12:27:57;11.60;99.90
17128;DHT22;8679;50.842;4.322;2023-11-21T12:30:25;11.60;99.90
17128;DHT22;8679;50.842;4.322;2023-11-21T12:32:54;11.50;99.90
17128;DHT22;8679;50.842;4.322;2023-11-21T12:35:27;11.60;99.90
17128;DHT22;8679;50.842;4.322;2023-11-21T12:37:55;11.60;99.90
17128;DHT22;8679;50.842;4.322;2023-11-21T12:40:22;11.60;99.90
17128;DHT22;8679;50.842;4.322;2023-11-21T12:42:56;11.70;99.90
17128;DHT22;8679;50.842;4.322;2023-11-21T12:45:23;11.70;99.90
17128;DHT22;8679;50.842;4.322;2023-11-21T12:47:54;11.70;99.90
17128;DHT22;8679;50.842;4.322;2023-11-21T12:50:21;11.80;99.90
17128;DHT22;8679;50.842;4.322;2023-11-21T12:52:50;11.80;99.90
17128;DHT22;8679;50.842;4.322;2023-11-21T12:55:21;11.90;99.90
17128;DHT22;8679;50.842;4.322;2023-11-21T12:57:51;11.80;99.90
17128;DHT22;8679;50.842;4.322;2023-11-21T13:00:26;11.80;99.90
17128;DHT22;8679;50.842;4.322;2023-11-21T13:02:57;11.90;99.90
17128;DHT22;8679;50.842;4.322;2023-11-21T13:05:28;11.90;99.90
17128;DHT22;8679;50.842;4.322;2023-11-21T13:07:59;11.80;99.90
17128;DHT22;8679;50.842;4.322;2023-11-21T13:10:29;11.90;99.90
17128;DHT22;8679;50.842;4.322;2023-11-21T13:12:57;11.90;99.90
17128;DHT22;8679;50.842;4.322;2023-11-21T13:15:32;12.00;99.90
17128;DHT22;8679;50.842;4.322;2023-11-21T13:18:00;12.00;99.90
17128;DHT22;8679;50.842;4.322;2023-11-21T13:20:26;12.10;99.90
17128;DHT22;8679;50.842;4.322;2023-11-21T13:22:53;12.20;99.90
17128;DHT22;8679;50.842;4.322;2023-11-21T13:25:21;12.10;99.90
17128;DHT22;8679;50.842;4.322;2023-11-21T13:27:47;12.10;99.90
17128;DHT22;8679;50.842;4.322;2023-11-21T13:30:14;12.20;99.90
17128;DHT22;8679;50.842;4.322;2023-11-21T13:32:48;12.10;99.90
17128;DHT22;8679;50.842;4.322;2023-11-21T13:35:17;12.10;99.90
17128;DHT22;8679;50.842;4.322;2023-11-21T13:37:52;12.10;99.90
17128;DHT22;8679;50.842;4.322;2023-11-21T13:40:22;12.10;99.90
17128;DHT22;8679;50.842;4.322;2023-11-21T13:42:53;12.10;99.90
17128;DHT22;8679;50.842;4.322;2023-11-21T13:45:22;12.20;99.90
17128;DHT22;8679;50.842;4.322;2023-11-21T13:47:52;12.10;99.90
17128;DHT22;8679;50.842;4.322;2023-11-21T13:50:20;12.20;99.90
17128;DHT22;8679;50.842;4.322;2023-11-21T13:52:54;12.10;99.90
17128;DHT22;8679;50.842;4.322;2023-11-21T13:55:20;12.00;99.90
17128;DHT22;8679;50.842;4.322;2023-11-21T13:57:48;11.90;99.90
17128;DHT22;8679;50.842;4.322;2023-11-21T14:00:18;12.00;99.90
17128;DHT22;8679;50.842;4.322;2023-11-21T14:03:02;11.90;99.90
17128;DHT22;8679;50.842;4.322;2023-11-21T14:05:31;11.90;99.90
17128;DHT22;8679;50.842;4.322;2023-11-21T14:07:59;11.80;99.90
17128;DHT22;8679;50.842;4.322;2023-11-21T14:10:32;11.80;99.90
17128;DHT22;8679;50.842;4.322;2023-11-21T14:13:07;11.80;99.90
17128;DHT22;8679;50.842;4.322;2023-11-21T14:15:33;11.70;99.90
17128;DHT22;8679;50.842;4.322;2023-11-21T14:18:03;11.80;99.90
17128;DHT22;8679;50.842;4.322;2023-11-21T14:20:33;11.70;99.90
17128;DHT22;8679;50.842;4.322;2023-11-21T14:23:01;11.70;99.90
17128;DHT22;8679;50.842;4.322;2023-11-21T14:25:27;11.60;99.90
17128;DHT22;8679;50.842;4.322;2023-11-21T14:27:53;11.60;99.90
17128;DHT22;8679;50.842;4.322;2023-11-21T14:30:19;11.60;99.90
17128;DHT22;8679;50.842;4.322;2023-11-21T14:32:48;11.60;99.90
17128;DHT22;8679;50.842;4.322;2023-11-21T14:35:14;11.60;99.90
17128;DHT22;8679;50.842;4.322;2023-11-21T14:37:40;11.60;99.90
17128;DHT22;8679;50.842;4.322;2023-11-21T14:40:06;11.60;99.90
17128;DHT22;8679;50.842;4.322;2023-11-21T14:42:33;11.50;99.90
17128;DHT22;8679;50.842;4.322;2023-11-21T14:45:00;11.60;99.90
17128;DHT22;8679;50.842;4.322;2023-11-21T14:47:25;11.50;99.90
17128;DHT22;8679;50.842;4.322;2023-11-21T14:49:52;11.50;99.90
17128;DHT22;8679;50.842;4.322;2023-11-21T14:52:21;11.50;99.90
17128;DHT22;8679;50.842;4.322;2023-11-21T14:55:03;11.50;99.90
17128;DHT22;8679;50.842;4.322;2023-11-21T14:57:48;11.50;99.90
17128;DHT22;8679;50.842;4.322;2023-11-21T15:00:17;11.50;99.90
17128;DHT22;8679;50.842;4.322;2023-11-21T15:03:02;11.50;99.90
17128;DHT22;8679;50.842;4.322;2023-11-21T15:05:28;11.40;99.90
17128;DHT22;8679;50.842;4.322;2023-11-21T15:07:55;11.40;99.90
17128;DHT22;8679;50.842;4.322;2023-11-21T15:10:37;11.40;99.90
17128;DHT22;8679;50.842;4.322;2023-11-21T15:13:12;11.30;99.90
17128;DHT22;8679;50.842;4.322;2023-11-21T15:15:38;11.30;99.90
17128;DHT22;8679;50.842;4.322;2023-11-21T15:18:05;11.30;99.90
17128;DHT22;8679;50.842;4.322;2023-11-21T15:20:32;11.30;99.90
17128;DHT22;8679;50.842;4.322;2023-11-21T15:22:57;11.30;99.90
17128;DHT22;8679;50.842;4.322;2023-11-21T15:25:23;11.30;99.90
17128;DHT22;8679;50.842;4.322;2023-11-21T15:27:49;11.30;99.90
17128;DHT22;8679;50.842;4.322;2023-11-21T15:30:18;11.30;99.90
17128;DHT22;8679;50.842;4.322;2023-11-21T15:32:48;11.20;99.90
17128;DHT22;8679;50.842;4.322;2023-11-21T15:35:14;11.30;99.90
17128;DHT22;8679;50.842;4.322;2023-11-21T15:37:40;11.20;99.90
17128;DHT22;8679;50.842;4.322;2023-11-21T15:40:06;11.20;99.90
17128;DHT22;8679;50.842;4.322;2023-11-21T15:42:34;11.20;99.90
17128;DHT22;8679;50.842;4.322;2023-11-21T15:45:02;11.20;99.90
17128;DHT22;8679;50.842;4.322;2023-11-21T15:47:30;11.20;99.90
17128;DHT22;8679;50.842;4.322;2023-11-21T15:49:55;11.20;99.90
17128;DHT22;8679;50.842;4.322;2023-11-21T15:52:21;11.10;99.90
17128;DHT22;8679;50.842;4.322;2023-11-21T15:54:47;11.20;99.90
17128;DHT22;8679;50.842;4.322;2023-11-21T15:57:12;11.20;99.90
17128;DHT22;8679;50.842;4.322;2023-11-21T15:59:40;11.10;99.90
17128;DHT22;8679;50.842;4.322;2023-11-21T16:02:07;11.00;99.90
17128;DHT22;8679;50.842;4.322;2023-11-21T16:04:34;11.00;99.90
17128;DHT22;8679;50.842;4.322;2023-11-21T16:07:02;11.00;99.90
17128;DHT22;8679;50.842;4.322;2023-11-21T16:09:29;11.00;99.90
17128;DHT22;8679;50.842;4.322;2023-11-21T16:12:01;11.00;99.90
17128;DHT22;8679;50.842;4.322;2023-11-21T16:14:32;11.00;99.90